Time;durP1;ratioP1;P1;durP2;ratioP2;P2;SDS_P1;SDS_P2;PMS_P1;PMS_P2;Temp;Humidity;BMP_temperature;BMP_pressure;BME280_temperature;BME280_humidity;BME280_pressure;Samples;Min_cycle;Max_cycle;Signal;HPM_P1;HPM_P2
2023/05/28 00:01:00;;;;;;;9.82;4.55;;;12.50;99.90;;;;;;5058542;28;20033;-71
2023/05/28 00:03:26;;;;;;;8.13;4.30;;;12.50;99.90;;;;;;5051213;28;20450;-71
2023/05/28 00:05:52;;;;;;;9.63;4.70;;;12.50;99.90;;;;;;5051913;28;20052;-71
2023/05/28 00:08:18;;;;;;;8.73;4.78;;;12.60;99.90;;;;;;5052766;28;20059;-71
2023/05/28 00:10:44;;;;;;;9.30;4.57;;;12.60;99.90;;;;;;5053019;28;20418;-70
2023/05/28 00:13:09;;;;;;;7.80;4.40;;;12.60;99.90;;;;;;5035698;28;20523;-70
2023/05/28 00:15:36;;;;;;;8.30;5.00;;;12.60;99.90;;;;;;5036937;28;20389;-70
2023/05/28 00:18:02;;;;;;;7.57;4.13;;;12.60;99.90;;;;;;5055017;28;20373;-70
2023/05/28 00:20:28;;;;;;;7.60;4.45;;;12.60;99.90;;;;;;5055136;28;20028;-70
2023/05/28 00:22:54;;;;;;;7.65;3.90;;;12.60;99.90;;;;;;5054717;28;20033;-70
2023/05/28 00:25:20;;;;;;;7.80;4.05;;;12.60;99.90;;;;;;5067959;28;20111;-70
2023/05/28 00:27:46;;;;;;;9.52;4.35;;;12.60;99.90;;;;;;5074797;28;20158;-70
2023/05/28 00:30:12;;;;;;;8.52;4.25;;;12.50;99.90;;;;;;5074416;28;20043;-70
2023/05/28 00:32:38;;;;;;;6.28;4.30;;;12.40;99.90;;;;;;5074514;28;20021;-70
2023/05/28 00:35:03;;;;;;;6.05;3.78;;;12.30;99.90;;;;;;5074226;28;20438;-70
2023/05/28 00:37:29;;;;;;;8.05;4.47;;;12.30;99.90;;;;;;5074677;28;20028;-70
2023/05/28 00:39:55;;;;;;;7.80;4.55;;;12.30;99.90;;;;;;5056401;28;20033;-70
2023/05/28 00:42:20;;;;;;;8.95;4.72;;;12.30;99.90;;;;;;5074576;28;20033;-70
2023/05/28 00:44:47;;;;;;;8.52;4.60;;;12.30;99.90;;;;;;5074496;28;20038;-70
2023/05/28 00:47:13;;;;;;;10.38;5.22;;;12.30;99.90;;;;;;5074461;28;20025;-70
2023/05/28 00:49:39;;;;;;;7.68;3.92;;;12.20;99.90;;;;;;5073667;28;20033;-70
2023/05/28 00:52:06;;;;;;;8.27;4.00;;;12.20;99.90;;;;;;5074403;28;20025;-70
2023/05/28 00:54:32;;;;;;;7.70;4.45;;;12.20;99.90;;;;;;5074656;28;20070;-70
2023/05/28 00:56:59;;;;;;;6.95;4.40;;;12.20;99.90;;;;;;5074043;28;20468;-70
2023/05/28 00:59:26;;;;;;;6.47;4.10;;;12.20;99.90;;;;;;5073834;28;20029;-70
2023/05/28 01:01:51;;;;;;;7.82;4.35;;;12.20;99.90;;;;;;5073862;28;20434;-70
2023/05/28 01:04:17;;;;;;;8.32;4.35;;;12.20;99.90;;;;;;5066128;28;20147;-70
2023/05/28 01:06:44;;;;;;;6.75;4.05;;;12.20;99.90;;;;;;5071344;28;20384;-70
2023/05/28 01:09:11;;;;;;;10.90;5.05;;;12.10;99.90;;;;;;5073113;28;20399;-70
2023/05/28 01:11:40;;;;;;;9.57;4.78;;;12.10;99.90;;;;;;5073186;28;20074;-70
2023/05/28 01:14:07;;;;;;;8.13;4.60;;;12.10;99.90;;;;;;5067718;28;20027;-70
2023/05/28 01:16:33;;;;;;;10.15;5.03;;;12.00;99.90;;;;;;5073146;28;20029;-70
2023/05/28 01:18:59;;;;;;;9.05;4.43;;;12.00;99.90;;;;;;5072544;28;20102;-70
2023/05/28 01:21:30;;;;;;;8.90;5.03;;;12.00;99.90;;;;;;5072650;28;20024;-70
2023/05/28 01:23:58;;;;;;;8.60;4.97;;;11.90;99.90;;;;;;5073075;28;20050;-70
2023/05/28 01:26:24;;;;;;;9.32;4.55;;;11.90;99.90;;;;;;5055076;28;20056;-70
2023/05/28 01:28:49;;;;;;;6.97;4.10;;;11.80;99.90;;;;;;5064405;28;20028;-70
2023/05/28 01:31:16;;;;;;;7.82;4.28;;;11.80;99.90;;;;;;5072804;28;20028;-70
2023/05/28 01:33:43;;;;;;;8.55;4.32;;;11.80;99.90;;;;;;5072405;28;20515;-70
2023/05/28 01:36:18;;;;;;;5.93;3.90;;;11.80;99.90;;;;;;5072157;28;20025;-71
2023/05/28 01:38:46;;;;;;;8.48;4.60;;;11.70;99.90;;;;;;5055359;28;20017;-70
2023/05/28 01:41:13;;;;;;;6.95;4.03;;;11.70;99.90;;;;;;5051891;28;20163;-71
2023/05/28 01:43:40;;;;;;;8.05;3.97;;;11.60;99.90;;;;;;5053320;28;20029;-71
2023/05/28 01:46:06;;;;;;;11.25;4.47;;;11.60;99.90;;;;;;5035606;28;20051;-70
2023/05/28 01:48:33;;;;;;;7.05;4.78;;;11.60;99.90;;;;;;5052909;28;20059;-70
2023/05/28 01:50:59;;;;;;;7.88;4.47;;;11.50;99.90;;;;;;5066300;28;20499;-70
2023/05/28 01:53:24;;;;;;;8.18;4.65;;;11.50;99.90;;;;;;5070908;28;20021;-70
2023/05/28 01:55:50;;;;;;;6.78;4.22;;;11.50;99.90;;;;;;5053207;28;20116;-70
2023/05/28 01:58:16;;;;;;;7.57;4.80;;;11.50;99.90;;;;;;5053075;28;20048;-70
2023/05/28 02:00:49;;;;;;;8.48;4.70;;;11.50;99.90;;;;;;5053446;28;20029;-70
2023/05/28 02:03:15;;;;;;;6.40;3.92;;;11.50;99.90;;;;;;5052903;28;20055;-70
2023/05/28 02:05:40;;;;;;;6.35;4.03;;;11.40;99.90;;;;;;5053143;28;20499;-70
2023/05/28 02:08:06;;;;;;;6.38;3.97;;;11.40;99.90;;;;;;5053053;28;20083;-70
2023/05/28 02:10:32;;;;;;;6.15;4.28;;;11.40;99.90;;;;;;5053003;28;20033;-70
2023/05/28 02:13:00;;;;;;;8.95;4.40;;;11.40;99.90;;;;;;5053058;28;20063;-70
2023/05/28 02:15:26;;;;;;;8.63;4.47;;;11.40;99.90;;;;;;5053105;28;20373;-70
2023/05/28 02:17:51;;;;;;;6.13;3.83;;;11.30;99.90;;;;;;5053368;28;20024;-70
2023/05/28 02:20:17;;;;;;;8.73;5.63;;;11.30;99.90;;;;;;5052747;28;20029;-70
2023/05/28 02:22:44;;;;;;;10.35;5.75;;;11.30;99.90;;;;;;5053010;28;20032;-70
2023/05/28 02:25:09;;;;;;;11.48;5.03;;;11.30;99.90;;;;;;5053259;28;20496;-70
2023/05/28 02:27:35;;;;;;;9.18;4.97;;;11.20;99.90;;;;;;5035216;28;20037;-70
2023/05/28 02:30:02;;;;;;;10.90;4.57;;;11.20;99.90;;;;;;5052741;28;20037;-70
2023/05/28 02:32:27;;;;;;;11.82;5.97;;;11.10;99.90;;;;;;5054586;28;20020;-70
2023/05/28 02:34:54;;;;;;;8.88;4.45;;;11.00;99.90;;;;;;5056622;28;20025;-70
2023/05/28 02:37:23;;;;;;;9.15;4.80;;;11.00;99.90;;;;;;5056743;28;20033;-70
2023/05/28 02:39:50;;;;;;;8.43;4.72;;;11.00;99.90;;;;;;5057225;28;20076;-70
2023/05/28 02:42:16;;;;;;;7.63;4.30;;;11.00;99.90;;;;;;5056599;28;20457;-70
2023/05/28 02:44:41;;;;;;;7.70;4.10;;;11.00;99.90;;;;;;5056581;28;20040;-70
2023/05/28 02:47:07;;;;;;;8.80;4.55;;;11.00;99.90;;;;;;5056501;28;20036;-70
2023/05/28 02:49:33;;;;;;;8.68;5.03;;;11.00;99.90;;;;;;5055995;28;20033;-69
2023/05/28 02:51:58;;;;;;;11.00;6.30;;;11.00;99.90;;;;;;5056466;28;20516;-70
2023/05/28 02:54:24;;;;;;;14.25;7.03;;;10.90;99.90;;;;;;5056360;28;20083;-70
2023/05/28 02:56:51;;;;;;;10.35;5.75;;;10.80;99.90;;;;;;5056620;28;20436;-70
2023/05/28 02:59:17;;;;;;;8.45;5.57;;;10.70;99.90;;;;;;5056283;28;20025;-70
2023/05/28 03:01:42;;;;;;;8.98;5.13;;;10.60;99.90;;;;;;5056244;28;20379;-70
2023/05/28 03:04:08;;;;;;;8.77;5.35;;;10.60;99.90;;;;;;5056387;28;20021;-70
2023/05/28 03:06:34;;;;;;;8.50;4.88;;;10.50;99.90;;;;;;5076173;28;20166;-70
2023/05/28 03:08:59;;;;;;;10.98;5.25;;;10.50;99.90;;;;;;5076680;28;20130;-70
2023/05/28 03:11:25;;;;;;;11.50;6.40;;;10.40;99.90;;;;;;5075981;28;20029;-70
2023/05/28 03:13:51;;;;;;;9.63;5.60;;;10.40;99.90;;;;;;5041480;28;20397;-70
2023/05/28 03:16:17;;;;;;;10.38;6.05;;;10.40;99.90;;;;;;5075945;28;20476;-70
2023/05/28 03:18:43;;;;;;;10.60;6.60;;;10.40;99.90;;;;;;5075843;28;20048;-70
2023/05/28 03:21:09;;;;;;;12.77;6.95;;;10.50;99.90;;;;;;5058145;28;20506;-70
2023/05/28 03:23:34;;;;;;;8.88;6.25;;;10.50;99.90;;;;;;5075885;28;20490;-70
2023/05/28 03:26:00;;;;;;;11.45;7.35;;;10.50;99.90;;;;;;5075808;28;20063;-70
2023/05/28 03:28:26;;;;;;;13.73;7.47;;;10.50;99.90;;;;;;5066422;28;20082;-70
2023/05/28 03:30:53;;;;;;;10.98;7.18;;;10.40;99.90;;;;;;5055618;28;20032;-70
2023/05/28 03:33:19;;;;;;;11.70;6.10;;;10.40;99.90;;;;;;5055685;28;20422;-70
2023/05/28 03:35:44;;;;;;;8.30;5.22;;;10.50;99.90;;;;;;5055338;28;20079;-70
2023/05/28 03:38:10;;;;;;;8.40;5.20;;;10.40;99.90;;;;;;5055480;28;20020;-70
2023/05/28 03:40:35;;;;;;;7.82;4.93;;;10.40;99.90;;;;;;5055538;28;20032;-70
2023/05/28 03:43:01;;;;;;;9.45;4.80;;;10.40;99.90;;;;;;5061437;28;20025;-70
2023/05/28 03:45:27;;;;;;;7.97;4.60;;;10.30;99.90;;;;;;5075742;28;20029;-70
2023/05/28 03:47:52;;;;;;;9.98;4.72;;;10.30;99.90;;;;;;5075387;28;20032;-70
2023/05/28 03:50:18;;;;;;;9.00;5.07;;;10.30;99.90;;;;;;5074881;28;20028;-70
2023/05/28 03:52:44;;;;;;;9.27;4.63;;;10.40;99.90;;;;;;5075347;28;20021;-70
2023/05/28 03:55:10;;;;;;;10.65;4.72;;;10.40;99.90;;;;;;5075622;28;20519;-70
2023/05/28 03:57:36;;;;;;;9.13;4.78;;;10.40;99.90;;;;;;5072560;28;20040;-70
2023/05/28 04:00:02;;;;;;;10.88;5.75;;;10.30;99.90;;;;;;5037223;28;20100;-70
2023/05/28 04:02:28;;;;;;;10.20;5.57;;;10.30;99.90;;;;;;5065842;28;20365;-70
2023/05/28 04:04:54;;;;;;;7.53;5.15;;;10.30;99.90;;;;;;5056887;28;20059;-70
2023/05/28 04:07:19;;;;;;;9.02;5.15;;;10.30;99.90;;;;;;5075070;28;20208;-70
2023/05/28 04:09:45;;;;;;;7.85;4.90;;;10.30;99.90;;;;;;5074978;28;20040;-70
2023/05/28 04:12:12;;;;;;;10.02;5.47;;;10.30;99.90;;;;;;5074963;28;20025;-70
2023/05/28 04:14:39;;;;;;;9.55;5.03;;;10.30;99.90;;;;;;5075267;28;20426;-70
2023/05/28 04:17:05;;;;;;;7.90;4.75;;;10.30;99.90;;;;;;5074848;28;20078;-70
2023/05/28 04:19:30;;;;;;;9.13;5.18;;;10.30;99.90;;;;;;5056552;28;20037;-70
2023/05/28 04:21:56;;;;;;;7.32;4.80;;;10.20;99.90;;;;;;5057168;28;20032;-70
2023/05/28 04:24:21;;;;;;;8.68;4.68;;;10.30;99.90;;;;;;5074688;28;20032;-70
2023/05/28 04:26:47;;;;;;;10.00;5.55;;;10.30;99.90;;;;;;5074646;28;20033;-70
2023/05/28 04:29:14;;;;;;;8.35;4.82;;;10.30;99.90;;;;;;5058692;28;20040;-70
2023/05/28 04:31:40;;;;;;;7.55;5.20;;;10.30;99.90;;;;;;5036632;28;20477;-70
2023/05/28 04:34:06;;;;;;;7.18;4.60;;;10.20;99.90;;;;;;5036773;28;20033;-70
2023/05/28 04:36:32;;;;;;;10.30;4.90;;;10.20;99.90;;;;;;5054762;28;20489;-70
2023/05/28 04:39:01;;;;;;;8.13;4.90;;;10.20;99.90;;;;;;5037047;28;20021;-70
2023/05/28 04:41:27;;;;;;;8.60;4.72;;;10.20;99.90;;;;;;5054332;28;20040;-70
2023/05/28 04:43:52;;;;;;;10.73;4.93;;;10.20;99.90;;;;;;5054312;28;20029;-70
2023/05/28 04:46:18;;;;;;;8.48;5.05;;;10.20;99.90;;;;;;5054323;28;20083;-70
2023/05/28 04:48:45;;;;;;;7.95;5.13;;;10.20;99.90;;;;;;5053784;28;20477;-70
2023/05/28 04:51:11;;;;;;;8.00;5.28;;;10.30;99.90;;;;;;5054204;28;20435;-70
2023/05/28 04:53:37;;;;;;;9.25;5.75;;;10.30;99.90;;;;;;5054469;28;20071;-70
2023/05/28 04:56:03;;;;;;;8.63;5.40;;;10.30;99.90;;;;;;5053379;28;20057;-70
2023/05/28 04:58:29;;;;;;;8.73;5.70;;;10.30;99.90;;;;;;5036476;28;20078;-70
2023/05/28 05:00:55;;;;;;;8.98;5.82;;;10.30;99.90;;;;;;5053981;28;20452;-70
2023/05/28 05:03:21;;;;;;;10.13;5.97;;;10.30;99.90;;;;;;5053986;28;20036;-70
2023/05/28 05:05:47;;;;;;;9.15;5.80;;;10.40;99.90;;;;;;5053684;28;20036;-70
2023/05/28 05:08:13;;;;;;;11.18;6.32;;;10.40;99.90;;;;;;5053832;28;20500;-70
2023/05/28 05:10:40;;;;;;;10.82;5.80;;;10.50;99.90;;;;;;5053741;28;20043;-70
2023/05/28 05:13:05;;;;;;;10.15;6.00;;;10.60;99.90;;;;;;5053779;28;20028;-70
2023/05/28 05:15:32;;;;;;;11.73;5.68;;;10.60;99.90;;;;;;5054022;28;20385;-70
2023/05/28 05:17:58;;;;;;;12.43;7.10;;;10.60;99.90;;;;;;5053646;28;20025;-70
2023/05/28 05:20:24;;;;;;;10.95;6.55;;;10.60;99.90;;;;;;5053510;28;20370;-70
2023/05/28 05:22:50;;;;;;;12.00;6.78;;;10.70;99.90;;;;;;5053617;28;20032;-70
2023/05/28 05:25:15;;;;;;;12.60;6.55;;;10.80;99.90;;;;;;5053826;28;20082;-70
2023/05/28 05:27:41;;;;;;;11.00;6.53;;;10.80;99.90;;;;;;5053570;28;20033;-70
2023/05/28 05:30:08;;;;;;;13.50;6.45;;;10.80;99.90;;;;;;5053423;28;20029;-70
2023/05/28 05:32:33;;;;;;;11.15;6.38;;;10.80;99.90;;;;;;5053497;28;20017;-70
2023/05/28 05:34:59;;;;;;;13.13;6.70;;;10.80;99.90;;;;;;5053352;28;20461;-70
2023/05/28 05:37:25;;;;;;;10.38;6.47;;;10.90;99.90;;;;;;5053439;28;20017;-70
2023/05/28 05:39:50;;;;;;;11.25;6.43;;;11.00;99.90;;;;;;5035633;28;20068;-70
2023/05/28 05:42:16;;;;;;;9.13;6.22;;;11.10;99.90;;;;;;5053355;28;20029;-70
2023/05/28 05:44:41;;;;;;;11.15;6.35;;;11.20;99.90;;;;;;5053318;28;20512;-70
2023/05/28 05:47:07;;;;;;;16.23;8.02;;;11.20;99.90;;;;;;5042556;28;20491;-70
2023/05/28 05:49:33;;;;;;;12.45;7.13;;;11.30;99.90;;;;;;5038241;28;20043;-70
2023/05/28 05:51:58;;;;;;;11.90;6.88;;;11.40;99.90;;;;;;5073528;28;20032;-70
2023/05/28 05:54:24;;;;;;;11.50;7.15;;;11.50;99.90;;;;;;5073771;28;20028;-70
2023/05/28 05:56:52;;;;;;;15.40;8.13;;;11.50;99.90;;;;;;5072969;28;20036;-70
2023/05/28 05:59:18;;;;;;;14.20;8.35;;;11.60;99.90;;;;;;5039246;28;20032;-70
2023/05/28 06:01:43;;;;;;;11.50;7.70;;;11.60;99.90;;;;;;5053211;28;20029;-70
2023/05/28 06:04:09;;;;;;;13.60;8.00;;;11.70;99.90;;;;;;5057010;28;20536;-70
2023/05/28 06:06:38;;;;;;;20.10;9.45;;;11.80;99.90;;;;;;5075955;28;20035;-70
2023/05/28 06:09:04;;;;;;;16.45;9.38;;;11.80;99.90;;;;;;5077277;28;20020;-70
2023/05/28 06:11:30;;;;;;;13.75;8.18;;;11.90;99.90;;;;;;5074940;28;20032;-71
2023/05/28 06:13:55;;;;;;;13.07;8.48;;;12.00;99.90;;;;;;5059259;28;20029;-71
2023/05/28 06:16:21;;;;;;;15.73;8.85;;;12.10;99.90;;;;;;5077690;28;20020;-70
2023/05/28 06:18:47;;;;;;;14.90;8.85;;;12.20;99.90;;;;;;5077217;28;20033;-73
2023/05/28 06:21:13;;;;;;;17.67;9.73;;;12.30;99.90;;;;;;5073309;28;20110;-71
2023/05/28 06:23:38;;;;;;;15.82;8.35;;;12.30;99.90;;;;;;5057711;28;20060;-70
2023/05/28 06:26:04;;;;;;;19.67;10.77;;;12.40;99.90;;;;;;5057657;28;20048;-70
2023/05/28 06:28:31;;;;;;;23.45;10.52;;;12.50;99.90;;;;;;5056721;28;20032;-71
2023/05/28 06:30:57;;;;;;;15.70;10.27;;;12.60;99.90;;;;;;5056769;28;20469;-70
2023/05/28 06:33:22;;;;;;;17.95;10.38;;;12.70;99.90;;;;;;5056776;28;20029;-70
2023/05/28 06:35:48;;;;;;;13.80;9.65;;;12.80;99.90;;;;;;5056633;28;20495;-70
2023/05/28 06:38:14;;;;;;;15.52;10.43;;;12.90;99.90;;;;;;5056750;28;20062;-70
2023/05/28 06:40:39;;;;;;;22.10;10.88;;;12.90;99.90;;;;;;5056613;28;20474;-71
2023/05/28 06:43:05;;;;;;;16.90;11.70;;;13.00;99.90;;;;;;5056633;28;20473;-71
2023/05/28 06:45:32;;;;;;;18.40;10.18;;;13.10;99.90;;;;;;5056573;28;20481;-70
2023/05/28 06:47:58;;;;;;;13.90;9.95;;;13.20;99.90;;;;;;5056700;28;20025;-70
2023/05/28 06:50:24;;;;;;;17.30;10.38;;;13.30;99.90;;;;;;5055978;28;20102;-70
2023/05/28 06:52:50;;;;;;;22.67;11.95;;;13.40;99.90;;;;;;5056430;28;20473;-70
2023/05/28 06:55:16;;;;;;;15.98;10.75;;;13.50;99.90;;;;;;5056393;28;20032;-70
2023/05/28 06:57:41;;;;;;;14.40;10.45;;;13.50;99.90;;;;;;5056506;28;20025;-70
2023/05/28 07:00:16;;;;;;;16.00;10.65;;;13.60;99.90;;;;;;5056206;28;20057;-70
2023/05/28 07:02:44;;;;;;;17.63;11.77;;;13.70;99.90;;;;;;5056311;28;20025;-70
2023/05/28 07:05:10;;;;;;;23.20;13.25;;;13.80;99.90;;;;;;5055961;28;20031;-69
2023/05/28 07:07:36;;;;;;;18.80;11.85;;;13.90;99.90;;;;;;5038328;28;20025;-70
2023/05/28 07:10:03;;;;;;;23.20;17.33;;;14.00;99.90;;;;;;5056115;28;20028;-70
2023/05/28 07:12:29;;;;;;;26.55;17.20;;;14.20;99.90;;;;;;5056340;28;20029;-70
2023/05/28 07:14:55;;;;;;;24.27;15.85;;;14.30;99.90;;;;;;5056055;28;20116;-70
2023/05/28 07:17:21;;;;;;;21.73;14.45;;;14.40;99.90;;;;;;5055365;28;20399;-70
2023/05/28 07:19:47;;;;;;;23.52;17.80;;;14.60;99.90;;;;;;5037619;28;20128;-70
2023/05/28 07:22:13;;;;;;;23.77;16.80;;;14.70;99.90;;;;;;5055921;28;20366;-70
2023/05/28 07:24:38;;;;;;;19.63;14.13;;;14.90;99.90;;;;;;5055845;28;20079;-70
2023/05/28 07:27:04;;;;;;;26.17;17.50;;;14.90;99.90;;;;;;5055798;28;20032;-70
2023/05/28 07:29:30;;;;;;;18.00;12.70;;;15.10;99.90;;;;;;5055520;28;20086;-70
2023/05/28 07:31:55;;;;;;;20.40;12.63;;;15.20;99.90;;;;;;5055728;28;20025;-70
2023/05/28 07:34:21;;;;;;;18.75;12.85;;;15.40;99.90;;;;;;5056171;28;20108;-70
2023/05/28 07:36:47;;;;;;;19.88;11.57;;;15.50;99.90;;;;;;5038080;28;20079;-70
2023/05/28 07:39:13;;;;;;;19.73;12.68;;;15.60;99.90;;;;;;5055526;28;20029;-70
2023/05/28 07:41:39;;;;;;;20.75;13.20;;;15.70;99.90;;;;;;5056052;28;20029;-70
2023/05/28 07:44:06;;;;;;;22.90;12.65;;;15.90;99.90;;;;;;5056028;28;20033;-70
2023/05/28 07:46:32;;;;;;;16.95;10.80;;;16.00;99.90;;;;;;5055546;28;20433;-70
2023/05/28 07:48:58;;;;;;;15.10;10.02;;;16.20;99.90;;;;;;5055180;28;20131;-70
2023/05/28 07:51:25;;;;;;;17.20;9.27;;;16.40;99.90;;;;;;5055080;28;20128;-70
2023/05/28 07:53:52;;;;;;;15.15;9.05;;;16.50;99.90;;;;;;5055313;28;20021;-70
2023/05/28 07:56:18;;;;;;;12.43;8.60;;;16.70;99.90;;;;;;5055271;28;20025;-70
2023/05/28 07:58:45;;;;;;;14.30;9.43;;;16.90;99.90;;;;;;5055369;28;20025;-70
2023/05/28 08:01:10;;;;;;;13.00;7.03;;;17.00;99.90;;;;;;5055910;28;20108;-71
2023/05/28 08:03:36;;;;;;;14.68;7.70;;;17.10;99.90;;;;;;5055220;28;20103;-72
2023/05/28 08:06:02;;;;;;;12.60;7.45;;;17.30;99.90;;;;;;5055176;28;20109;-72
2023/05/28 08:08:28;;;;;;;12.73;7.68;;;17.50;99.90;;;;;;5055619;28;20070;-72
2023/05/28 08:10:54;;;;;;;11.02;6.75;;;17.70;99.90;;;;;;5055138;28;20080;-72
2023/05/28 08:13:20;;;;;;;10.75;6.20;;;17.80;99.90;;;;;;5055036;28;20599;-72
2023/05/28 08:15:46;;;;;;;13.13;7.05;;;17.90;99.90;;;;;;5067308;28;20028;-72
2023/05/28 08:18:12;;;;;;;12.05;6.35;;;18.00;99.90;;;;;;5074580;28;20017;-71
2023/05/28 08:20:38;;;;;;;11.65;6.40;;;18.20;99.90;;;;;;5056770;28;20090;-72
2023/05/28 08:23:04;;;;;;;9.90;5.30;;;18.30;99.90;;;;;;5074742;28;20062;-72
2023/05/28 08:25:30;;;;;;;11.05;5.60;;;18.40;99.90;;;;;;5074731;28;20029;-72
2023/05/28 08:27:56;;;;;;;11.20;5.97;;;18.50;99.90;;;;;;5061302;28;20488;-72
2023/05/28 08:30:22;;;;;;;13.93;5.75;;;18.70;99.90;;;;;;5053384;28;20075;-72
2023/05/28 08:32:47;;;;;;;10.32;5.50;;;18.80;99.90;;;;;;5054562;28;20029;-73
2023/05/28 08:35:13;;;;;;;10.60;5.50;;;18.90;99.90;;;;;;5054271;28;20099;-72
2023/05/28 08:37:39;;;;;;;13.43;5.75;;;19.10;99.90;;;;;;5054501;28;20422;-72
2023/05/28 08:40:08;;;;;;;8.38;5.10;;;19.20;99.90;;;;;;5054328;28;20135;-72
2023/05/28 08:42:35;;;;;;;10.38;5.35;;;19.40;99.90;;;;;;5054421;28;20036;-72
2023/05/28 08:45:04;;;;;;;10.45;5.85;;;19.60;99.90;;;;;;5054267;28;20036;-72
2023/05/28 08:47:33;;;;;;;7.80;4.80;;;19.80;99.90;;;;;;5054569;28;20428;-72
2023/05/28 08:50:05;;;;;;;9.98;5.35;;;19.90;99.90;;;;;;5053690;28;20026;-71
2023/05/28 08:52:33;;;;;;;8.98;4.43;;;20.00;99.90;;;;;;5054389;28;20025;-72
2023/05/28 08:55:00;;;;;;;9.15;4.70;;;20.10;99.10;;;;;;5054148;28;20107;-72
2023/05/28 08:57:28;;;;;;;9.93;4.93;;;20.10;98.40;;;;;;5054024;28;20017;-72
2023/05/28 08:59:54;;;;;;;10.32;5.60;;;20.20;99.10;;;;;;5054022;28;20025;-73
2023/05/28 09:02:24;;;;;;;11.05;4.80;;;20.30;98.80;;;;;;5054667;28;20037;-72
2023/05/28 09:04:50;;;;;;;9.25;4.78;;;20.40;97.70;;;;;;5053620;28;20064;-70
2023/05/28 09:07:16;;;;;;;15.10;5.13;;;20.50;98.00;;;;;;5054163;28;20061;-73
2023/05/28 09:09:42;;;;;;;10.52;4.72;;;20.60;97.00;;;;;;5035740;28;20040;-73
2023/05/28 09:12:12;;;;;;;8.38;5.05;;;20.70;98.20;;;;;;5053843;28;20021;-73
2023/05/28 09:14:40;;;;;;;9.48;5.22;;;20.80;96.60;;;;;;5054216;28;20432;-73
2023/05/28 09:17:08;;;;;;;10.77;4.82;;;21.00;96.60;;;;;;5053642;28;20491;-73
2023/05/28 09:19:34;;;;;;;8.35;5.13;;;21.10;95.70;;;;;;5053868;28;20021;-72
2023/05/28 09:22:02;;;;;;;7.05;4.25;;;21.30;94.80;;;;;;5053922;28;20138;-73
2023/05/28 09:24:29;;;;;;;8.07;4.80;;;21.40;95.90;;;;;;5053625;28;20575;-72
2023/05/28 09:26:55;;;;;;;9.63;5.15;;;21.50;96.20;;;;;;5054281;28;20029;-72
2023/05/28 09:29:26;;;;;;;8.52;4.30;;;21.70;95.40;;;;;;5035351;28;20033;-72
2023/05/28 09:32:01;;;;;;;;;;;21.80;95.50;;;;;;5054099;28;20116;-72
2023/05/28 09:34:30;;;;;;;;;;;21.90;95.70;;;;;;5053580;28;19905;-72
2023/05/28 09:36:59;;;;;;;;;;;22.10;95.20;;;;;;5053824;28;19947;-72
2023/05/28 09:39:26;;;;;;;;;;;22.20;94.40;;;;;;5053754;28;19908;-72
2023/05/28 09:42:03;;;;;;;;;;;22.40;92.50;;;;;;5053439;28;19912;-72
2023/05/28 09:44:35;;;;;;;;;;;22.40;91.90;;;;;;5054040;28;19996;-71
2023/05/28 09:47:00;;;;;;;;;;;22.50;91.10;;;;;;5035851;28;19938;-71
2023/05/28 09:49:32;;;;;;;;;;;22.50;88.50;;;;;;5053363;28;19916;-72
2023/05/28 09:52:01;;;;;;;;;;;22.50;88.90;;;;;;5053881;28;19920;-71
2023/05/28 09:54:29;;;;;;;;;;;22.60;88.90;;;;;;5035755;28;20383;-71
2023/05/28 09:56:55;;;;;;;;;;;22.60;86.60;;;;;;5054126;28;19911;-71
2023/05/28 09:59:24;;;;;;;;;;;22.70;89.80;;;;;;5053858;28;19951;-71
2023/05/28 10:02:17;;;;;;;;;;;22.80;90.20;;;;;;5053845;28;19943;-70
2023/05/28 10:04:44;;;;;;;;;;;22.90;87.60;;;;;;5030444;28;19979;-72
2023/05/28 10:07:11;;;;;;;;;;;22.90;84.50;;;;;;5060117;28;19912;-71
2023/05/28 10:09:39;;;;;;;;;;;23.00;85.00;;;;;;5073095;28;19904;-71
2023/05/28 10:12:16;;;;;;;;;;;23.00;84.50;;;;;;5073464;28;19926;-71
2023/05/28 10:14:42;;;;;;;;;;;23.10;82.20;;;;;;5057006;28;19913;-70
2023/05/28 10:17:08;;;;;;;;;;;23.10;85.30;;;;;;5062623;28;20274;-71
2023/05/28 10:19:34;;;;;;;;;;;23.10;83.40;;;;;;5064474;28;19972;-71
2023/05/28 10:22:00;;;;;;;;;;;23.20;82.10;;;;;;5041973;28;19995;-71
2023/05/28 10:24:25;;;;;;;;;;;23.40;83.50;;;;;;5067920;28;19951;-72
2023/05/28 10:26:52;;;;;;;;;;;23.50;80.70;;;;;;5070965;28;19914;-71
2023/05/28 10:29:18;;;;;;;;;;;23.70;83.30;;;;;;5056635;28;20003;-71
2023/05/28 10:31:44;;;;;;;;;;;23.90;78.90;;;;;;5056678;28;20015;-72
2023/05/28 10:34:16;;;;;;;;;;;24.00;76.60;;;;;;5043854;28;19908;-72
2023/05/28 10:36:54;;;;;;;;;;;24.00;77.90;;;;;;5037818;28;20284;-72
2023/05/28 10:39:20;;;;;;;;;;;24.10;78.30;;;;;;5044661;28;19962;-72
2023/05/28 10:41:45;;;;;;;;;;;24.20;77.40;;;;;;5060190;28;19921;-72
2023/05/28 10:44:11;;;;;;;;;;;24.40;76.60;;;;;;5061217;28;20296;-72
2023/05/28 10:46:37;;;;;;;;;;;24.50;76.60;;;;;;5060781;28;19920;-72
2023/05/28 10:49:08;;;;;;;;;;;24.60;74.90;;;;;;5060265;28;19920;-71
2023/05/28 10:51:43;;;;;;;;;;;24.60;72.30;;;;;;5057914;28;19995;-71
2023/05/28 10:54:14;;;;;;;;;;;24.50;72.40;;;;;;5055621;28;19969;-71
2023/05/28 10:56:59;;;;;;;;;;;24.50;74.10;;;;;;5061457;28;19962;-71
2023/05/28 10:59:36;;;;;;;;;;;24.40;71.40;;;;;;5059968;28;19909;-71
2023/05/28 11:02:05;;;;;;;;;;;24.40;72.30;;;;;;5057006;28;20351;-71
2023/05/28 11:04:35;;;;;;;6.80;3.80;;;24.40;72.50;;;;;;5065408;28;19912;-71
2023/05/28 11:07:02;;;;;;;6.70;3.70;;;24.40;73.30;;;;;;5069225;28;20201;-71
2023/05/28 11:09:28;;;;;;;;;;;24.60;70.20;;;;;;5065594;28;20025;-71
2023/05/28 11:12:02;;;;;;;6.80;4.20;;;24.70;71.10;;;;;;5064703;28;19914;-71
2023/05/28 11:14:35;;;;;;;;;;;24.70;69.20;;;;;;5056589;28;20542;-71
2023/05/28 11:17:01;;;;;;;;;;;24.70;70.40;;;;;;5045139;28;20512;-71
2023/05/28 11:19:26;;;;;;;;;;;24.80;68.70;;;;;;5056281;28;19912;-71
2023/05/28 11:21:52;;;;;;;;;;;25.00;71.60;;;;;;5057479;28;19954;-71
2023/05/28 11:24:18;;;;;;;;;;;25.00;71.70;;;;;;5058365;28;19919;-71
2023/05/28 11:26:44;;;;;;;;;;;24.90;68.90;;;;;;5071085;28;19913;-71
2023/05/28 11:29:10;;;;;;;;;;;24.70;70.00;;;;;;5073935;28;20397;-71
2023/05/28 11:31:39;;;;;;;;;;;24.70;70.90;;;;;;5066318;28;20276;-71
2023/05/28 11:34:05;;;;;;;;;;;24.80;66.10;;;;;;5057442;28;20360;-72
2023/05/28 11:36:31;;;;;;;;;;;24.80;67.90;;;;;;5047981;28;19922;-71
2023/05/28 11:39:00;;;;;;;;;;;24.80;67.70;;;;;;5068584;28;19966;-71
2023/05/28 11:41:26;;;;;;;;;;;24.80;70.60;;;;;;5063169;28;20270;-71
2023/05/28 11:43:52;;;;;;;;;;;24.90;72.50;;;;;;5067014;28;19908;-71
2023/05/28 11:46:21;;;;;;;;;;;24.70;70.50;;;;;;5048937;28;19912;-71
2023/05/28 11:48:47;;;;;;;;;;;24.40;71.10;;;;;;5037721;28;20348;-71
2023/05/28 11:51:12;;;;;;;;;;;24.00;70.80;;;;;;5069282;28;19976;-71
2023/05/28 11:53:42;;;;;;;;;;;23.90;72.90;;;;;;5069056;28;20353;-71
2023/05/28 11:56:08;;;;;;;;;;;23.80;74.60;;;;;;5039109;28;19919;-71
2023/05/28 11:58:34;;;;;;;;;;;23.60;74.00;;;;;;5061022;28;19908;-71
2023/05/28 12:01:00;;;;;;;;;;;23.50;73.00;;;;;;5073178;28;19912;-71
2023/05/28 12:03:28;;;;;;;;;;;23.40;75.60;;;;;;5068016;28;19916;-71
2023/05/28 12:05:54;;;;;;;;;;;23.40;74.90;;;;;;5056878;28;19912;-71
2023/05/28 12:08:19;;;;;;;;;;;23.20;73.50;;;;;;5060828;28;19913;-70
2023/05/28 12:10:45;;;;;;;;;;;23.00;75.70;;;;;;5072032;28;19958;-70
2023/05/28 12:13:14;;;;;;;;;;;22.90;75.90;;;;;;5068885;28;19924;-70
2023/05/28 12:15:40;;;;;;;;;;;22.90;77.90;;;;;;5071267;28;20319;-70
2023/05/28 12:18:06;;;;;;;;;;;23.00;79.50;;;;;;5053734;28;20002;-70
2023/05/28 12:20:34;;;;;;;;;;;23.00;75.30;;;;;;5071283;28;19959;-70
2023/05/28 12:23:04;;;;;;;;;;;22.80;76.20;;;;;;5067696;28;20213;-70
2023/05/28 12:25:37;;;;;;;;;;;22.60;76.30;;;;;;5040885;28;20434;-70
2023/05/28 12:28:03;;;;;;;;;;;22.70;79.50;;;;;;5067105;28;19916;-70
2023/05/28 12:30:28;;;;;;;;;;;23.00;79.50;;;;;;5066510;28;19912;-70
2023/05/28 12:32:54;;;;;;;;;;;23.10;77.70;;;;;;5072923;28;20070;-69
2023/05/28 12:35:19;;;;;;;;;;;23.20;77.00;;;;;;5055330;28;19953;-70
2023/05/28 12:37:45;;;;;;;;;;;23.20;76.80;;;;;;5070553;28;19981;-70
2023/05/28 12:40:12;;;;;;;;;;;23.00;75.70;;;;;;5065797;28;20363;-69
2023/05/28 12:42:37;;;;;;;;;;;23.00;77.00;;;;;;5036976;28;19908;-70
2023/05/28 12:45:03;;;;;;;;;;;22.90;77.20;;;;;;5054702;28;20277;-69
2023/05/28 12:47:28;;;;;;;8.43;4.68;;;22.80;77.20;;;;;;5054587;28;20271;-70
2023/05/28 12:49:54;;;;;;;7.57;4.35;;;22.70;75.90;;;;;;5067114;28;20484;-70
2023/05/28 12:52:20;;;;;;;8.13;4.72;;;22.60;75.70;;;;;;5046816;28;20132;-71
2023/05/28 12:54:46;;;;;;;7.45;4.30;;;22.60;77.90;;;;;;5056873;28;20039;-71
2023/05/28 12:57:11;;;;;;;8.50;4.30;;;22.70;77.60;;;;;;5068306;28;20046;-70
2023/05/28 12:59:37;;;;;;;10.52;4.32;;;22.80;77.70;;;;;;5057927;28;20025;-70